Flight Track Log - Related Links

Times and Time Zones

All times are in EDT time to prevent confusion due to time zone crossing. See the N588AC flight status page for this flight to view local times or setup timezone preferences in your user account.

Time Position Orientation Groundspeed Altitude Reporting Facility
EDT Latitude Longitude Course Direction KTS MPH feet Rate Location/Type
Mon 08:27:41 AM 37.2167 -80.4600 317° Northwest 175 201 4,500  Level Indianapolis Center
Mon 08:28:42 AM 37.1708 -80.4325 154° Southeast 250 288 6,000 1,293 Climbing Indianapolis Center
Mon 08:29:37 AM 37.2139 -80.3853 41° Northeast 276 318 7,000 1,345 Climbing Washington Center
Mon 08:30:38 AM 37.2681 -80.4408 321° Northwest 264 304 8,600 1,475 Climbing Washington Center
Mon 08:31:00 AM 37.5344 -80.8182 310° West  Level FlightAware Approximate
Mon 08:31:39 AM 37.3194 -80.5069 314° West 264 304 10,000  Level Washington Center
Mon 08:32:00 AM 37.5883 -80.8922 317° Northwest  Level FlightAware Approximate
Mon 08:32:45 AM 37.3794 -80.5825 315° West 265 305 11,300  Level Indianapolis Center
Mon 08:33:00 AM 37.6466 -80.9610 317° Northwest  Level FlightAware Approximate
Mon 08:33:46 AM 37.4308 -80.6511 313° West 274 315 12,300  Level Indianapolis Center
Mon 08:34:47 AM 37.4725 -80.7314 303° West 280 322 13,400 1,033 Climbing Indianapolis Center
Mon 08:35:48 AM 37.5094 -80.8161 299° West 283 326 14,400 1,033 Climbing Indianapolis Center
Mon 08:36:49 AM 37.5456 -80.9006 298° West 282 325 15,500 1,140 Climbing Indianapolis Center
Mon 08:37:49 AM 37.5942 -81.0008 301° West 285 328 16,700 1,091 Climbing Indianapolis Center
Mon 08:38:50 AM 37.6325 -81.0842 300° West 283 326 17,700 1,033 Climbing Indianapolis Center
Mon 08:39:51 AM 37.6697 -81.1678 299° West 281 323 18,800 1,033 Climbing Indianapolis Center
Mon 08:40:52 AM 37.7094 -81.2519 301° West 286 329 19,800 1,033 Climbing Indianapolis Center
Mon 08:41:53 AM 37.7481 -81.3358 300° West 285 328 20,900 1,131 Climbing Indianapolis Center
Mon 08:42:54 AM 37.7736 -81.4469 286° West 282 325 22,100 1,131 Climbing Indianapolis Center
Mon 08:43:55 AM 37.7942 -81.5419 285° West 280 322 23,200 1,091 Climbing Indianapolis Center
Mon 08:44:55 AM 37.8139 -81.6356 285° West 276 318 24,300 1,091 Climbing Indianapolis Center
Mon 08:45:56 AM 37.8344 -81.7300 285° West 277 319 25,400 1,033 Climbing Indianapolis Center
Mon 08:46:57 AM 37.8531 -81.8222 284° West 271 312 26,400 934 Climbing Indianapolis Center
Mon 08:47:58 AM 37.8728 -81.9125 285° West 267 307 27,300 738 Climbing Indianapolis Center
Mon 08:48:59 AM 37.8933 -82.0128 285° West 286 329 27,900 590 Climbing Indianapolis Center
Mon 08:50:00 AM 37.9172 -82.1250 285° West 314 361 28,500 590 Climbing Indianapolis Center
Mon 08:51:01 AM 37.9400 -82.2342 285° West 327 376 29,100 590 Climbing Indianapolis Center
Mon 08:52:02 AM 37.9625 -82.3456 284° West 328 377 29,700 590 Climbing Indianapolis Center
Mon 08:53:03 AM 37.9864 -82.4578 285° West 328 377 30,300 590 Climbing Indianapolis Center
Mon 08:54:04 AM 38.0089 -82.5689 284° West 328 377 30,900 639 Climbing Indianapolis Center
Mon 08:55:05 AM 38.0361 -82.6992 285° West 327 376 31,600 541 Climbing Indianapolis Center
Mon 08:56:06 AM 38.0569 -82.8106 283° West 325 374 32,000 148 Climbing Indianapolis Center
Mon 08:57:07 AM 38.0797 -82.9239 284° West 330 380 31,900 -541 Descending Indianapolis Center
Mon 08:58:08 AM 38.1039 -83.0422 285° West 343 395 30,900 -934 Descending Indianapolis Center
Mon 08:59:09 AM 38.1294 -83.1700 284° West 366 421 30,000 -443 Descending Indianapolis Center
Mon 09:00:10 AM 38.1542 -83.2942 284° West 365 420 30,000  Level Indianapolis Center
Mon 09:01:11 AM 38.1775 -83.4156 284° West 357 411 30,000  Level Indianapolis Center
Mon 09:02:12 AM 38.2008 -83.5372 284° West 355 409 30,000  Level Indianapolis Center
Mon 09:03:13 AM 38.2483 -83.6456 299° West 354 407 30,000  Level Indianapolis Center
Mon 09:04:14 AM 38.2936 -83.7564 298° West 352 405 30,000  Level Indianapolis Center
Mon 09:05:15 AM 38.3394 -83.8672 298° West 353 406 30,000  Level Indianapolis Center
Mon 09:06:16 AM 38.3922 -83.9956 298° West 351 404 30,000  Level Indianapolis Center
Mon 09:07:18 AM 38.4383 -84.1061 298° West 353 406 30,000  Level Indianapolis Center
Mon 09:08:19 AM 38.4836 -84.2158 298° West 351 404 30,000  Level Indianapolis Center
Mon 09:09:20 AM 38.5292 -84.3286 297° West 353 406 30,000 -49 Level Indianapolis Center
Mon 09:10:21 AM 38.5728 -84.4375 297° West 347 399 29,900 -639 Descending Indianapolis Center
Mon 09:11:22 AM 38.6194 -84.5494 298° West 352 405 28,700 -1,180 Descending Indianapolis Center
Mon 09:12:23 AM 38.6689 -84.6692 298° West 372 428 27,500 -1,171 Descending Indianapolis Center
Mon 09:13:25 AM 38.7158 -84.7883 297° West 375 432 26,300 -1,220 Descending Indianapolis Center
Mon 09:14:26 AM 38.7619 -84.9028 297° West 365 420 25,000 -1,279 Descending Indianapolis Center
Mon 09:15:27 AM 38.8086 -85.0161 298° West 362 417 23,700 -1,328 Descending Indianapolis Center
Mon 09:16:28 AM 38.8519 -85.1297 296° West 359 413 22,300 -1,672 Descending Indianapolis Center
Mon 09:17:29 AM 38.8964 -85.2392 298° West 351 404 20,300 -2,164 Descending Indianapolis Center
Mon 09:18:30 AM 38.9478 -85.3692 297° West 344 396 17,900 -2,098 Descending Indianapolis Center
Mon 09:19:32 AM 38.9892 -85.4736 297° West 334 384 16,000 -1,659 Descending Indianapolis Center
Mon 09:20:33 AM 39.0261 -85.5711 296° West 316 364 14,500 -1,082 Descending Indianapolis Center
Mon 09:21:34 AM 39.0636 -85.6633 298° West 299 344 13,800 -934 Descending Indianapolis Center
Mon 09:22:35 AM 39.0992 -85.7531 297° West 287 330 12,600 -1,328 Descending Indianapolis Center
Mon 09:23:36 AM 39.1700 -85.8044 331° Northwest 305 351 11,100 -1,279 Descending Indianapolis Center
Mon 09:24:37 AM 39.2553 -85.8056 359° North 315 362 10,000 -537 Descending Indianapolis Center
Mon 09:25:39 AM 39.3258 -85.8297 345° North 274 315 10,000  Level Indianapolis Center
Mon 09:26:40 AM 39.3881 -85.8514 345° North 242 278 10,000  Level Indianapolis Center
Mon 09:27:41 AM 39.4614 -85.8778 344° North 262 302 10,000 -98 Level Indianapolis Center
Mon 09:28:42 AM 39.5542 -85.9100 345° North 285 328 9,800 -634 Descending Indianapolis Center
Mon 09:29:44 AM 39.6197 -85.9344 344° North 260 299 8,700 -1,512 Descending Indianapolis Center
Mon 09:30:45 AM 39.6906 -85.9589 345° North 260 299 6,700 -1,869 Descending Indianapolis Center
Mon 09:31:46 AM 39.7619 -85.9839 345° North 267 307 4,900 -1,328 Descending Indianapolis Center
Mon 09:32:47 AM 39.8231 -86.0061 344° North 243 280 4,000 -439 Descending Indianapolis Center
Mon 09:33:49 AM 39.8750 -86.0253 344° North 207 238 4,000 -341 Level Indianapolis Center
Mon 09:34:50 AM 39.9094 -86.0783 310° West 196 226 3,300 -492 Descending Indianapolis Center
Mon 09:35:51 AM 39.9464 -86.1250 316° Northwest 196 226 3,000 -146 Descending Indianapolis Center
Mon 09:36:53 AM 39.9819 -86.1653 319° Northwest 180 207 3,000 -195 Level Indianapolis Center
Mon 09:37:54 AM 39.9633 -86.2136 243° Southwest 188 216 2,600 -295 Descending Indianapolis Center
Mon 09:38:55 AM 39.9178 -86.2403 204° Southwest 184 212 2,400 -341 Descending Indianapolis Center
Mon 09:39:57 AM 39.8836 -86.2617 206° Southwest 159 183 1,900 -634 Descending Indianapolis Center
Mon 09:40:58 AM 39.8531 -86.2794 204° Southwest 136 157 1,100 -492 Descending Indianapolis Center
Mon 09:41:59 AM 39.8164 -86.3019 205° Southwest 131 151 900 -197 Descending Indianapolis Center

Login

Don't have an account? Register now (free) for customized features, flight alerts, and more!